createdAt,value
2019-02-11T00:00:26.929Z,66.50
2019-02-11T00:02:53.615Z,66.60
2019-02-11T00:05:20.257Z,66.70
2019-02-11T00:07:46.903Z,66.80
2019-02-11T00:10:13.548Z,66.90
2019-02-11T00:12:40.210Z,67.00
2019-02-11T00:15:06.869Z,67.10
2019-02-11T00:17:33.510Z,67.10
2019-02-11T00:20:00.368Z,67.30
2019-02-11T00:22:27.029Z,67.40
2019-02-11T00:24:53.777Z,67.50
2019-02-11T00:27:20.446Z,67.50
2019-02-11T00:29:47.090Z,67.40
2019-02-11T00:32:13.734Z,67.40
2019-02-11T00:34:40.407Z,67.40
2019-02-11T00:37:07.058Z,67.40
2019-02-11T00:39:33.746Z,67.50
2019-02-11T00:42:00.408Z,67.40
2019-02-11T00:44:27.031Z,67.40
2019-02-11T00:46:53.685Z,67.40
2019-02-11T00:49:20.322Z,67.40
2019-02-11T00:51:46.973Z,67.50
2019-02-11T00:54:13.646Z,67.30
2019-02-11T00:56:40.294Z,67.40
2019-02-11T00:59:06.930Z,67.40
2019-02-11T01:01:33.612Z,67.50
2019-02-11T01:04:00.261Z,67.70
2019-02-11T01:06:26.991Z,67.70
2019-02-11T01:08:53.677Z,67.80
2019-02-11T01:11:20.351Z,67.90
2019-02-11T01:13:47.013Z,67.80
2019-02-11T01:16:13.707Z,67.80
2019-02-11T01:18:40.357Z,68.00
2019-02-11T01:21:07.023Z,68.10
2019-02-11T01:23:33.662Z,68.80
2019-02-11T01:26:00.328Z,68.20
2019-02-11T01:28:26.983Z,68.00
2019-02-11T01:30:53.622Z,68.20
2019-02-11T01:33:20.289Z,68.10
2019-02-11T01:35:46.939Z,68.20
2019-02-11T01:38:13.666Z,68.30
2019-02-11T01:40:40.312Z,68.10
2019-02-11T01:43:06.950Z,68.30
2019-02-11T01:45:34.794Z,68.40
2019-02-11T01:48:01.436Z,68.50
2019-02-11T01:50:28.091Z,68.40
2019-02-11T01:52:54.775Z,68.50
2019-02-11T01:55:21.426Z,68.40
2019-02-11T01:57:48.078Z,68.50
2019-02-11T02:00:14.750Z,68.40
2019-02-11T02:02:41.389Z,68.40
2019-02-11T02:05:08.869Z,68.40
2019-02-11T02:07:35.516Z,68.40
2019-02-11T02:10:04.175Z,68.40
2019-02-11T02:12:30.837Z,68.30
2019-02-11T02:14:57.684Z,68.60
2019-02-11T02:17:24.361Z,68.40
2019-02-11T02:19:51.015Z,68.30
2019-02-11T02:22:17.654Z,68.50
2019-02-11T02:24:44.321Z,68.70
2019-02-11T02:27:10.963Z,68.60
2019-02-11T02:29:37.792Z,68.60
2019-02-11T02:32:04.375Z,68.30
2019-02-11T02:34:31.010Z,68.30
2019-02-11T02:36:57.683Z,68.30
2019-02-11T02:39:24.333Z,68.40
2019-02-11T02:41:51.001Z,68.30
2019-02-11T02:44:17.650Z,68.30
2019-02-11T02:46:45.365Z,68.30
2019-02-11T02:49:12.030Z,68.30
2019-02-11T02:51:38.682Z,68.40
2019-02-11T02:54:05.366Z,68.40
2019-02-11T02:56:32.012Z,68.30
2019-02-11T02:58:58.667Z,68.40
2019-02-11T03:01:25.318Z,68.40
2019-02-11T03:03:51.958Z,68.40
2019-02-11T03:06:18.645Z,68.40
2019-02-11T03:08:45.299Z,68.60
2019-02-11T03:11:11.967Z,68.50
2019-02-11T03:13:38.823Z,68.70
2019-02-11T03:16:05.486Z,68.80
2019-02-11T03:18:32.495Z,68.70
2019-02-11T03:20:59.117Z,68.60
2019-02-11T03:23:25.753Z,68.80
2019-02-11T03:25:52.426Z,68.80
2019-02-11T03:28:19.050Z,69.40
2019-02-11T03:30:45.786Z,68.80
2019-02-11T03:33:12.405Z,68.70
2019-02-11T03:35:39.011Z,68.70
2019-02-11T03:38:06.006Z,68.60
2019-02-11T03:40:32.676Z,68.80
2019-02-11T03:42:59.514Z,68.70
2019-02-11T03:45:26.154Z,68.80
2019-02-11T03:47:52.883Z,68.80
2019-02-11T03:50:19.571Z,68.40
2019-02-11T03:52:46.206Z,68.60
2019-02-11T03:55:12.874Z,68.50
2019-02-11T03:57:39.515Z,68.50
2019-02-11T04:00:09.663Z,68.40
2019-02-11T04:02:36.301Z,68.30
2019-02-11T04:05:04.143Z,68.40
2019-02-11T04:07:30.822Z,68.30
2019-02-11T04:09:57.507Z,68.30
2019-02-11T04:12:24.157Z,68.80
2019-02-11T04:14:50.864Z,68.20
2019-02-11T04:17:17.511Z,68.60
2019-02-11T04:19:44.189Z,68.20
2019-02-11T04:22:10.838Z,68.90
2019-02-11T04:24:37.491Z,69.00
2019-02-11T04:27:09.839Z,69.20
2019-02-11T04:29:45.424Z,68.90
2019-02-11T04:32:18.369Z,68.40
2019-02-11T04:34:45.039Z,68.70
2019-02-11T04:37:11.677Z,68.30
2019-02-11T04:39:38.355Z,68.50
2019-02-11T04:42:05.002Z,68.40
2019-02-11T04:44:33.925Z,68.10
2019-02-11T04:47:00.099Z,68.20
2019-02-11T04:49:26.771Z,68.20
2019-02-11T04:51:53.462Z,68.20
2019-02-11T04:54:20.241Z,68.20
2019-02-11T04:56:46.854Z,67.80
2019-02-11T04:59:13.501Z,67.70
2019-02-11T05:01:40.132Z,67.70
2019-02-11T05:04:06.813Z,67.60
2019-02-11T05:06:33.524Z,67.50
2019-02-11T05:09:00.179Z,67.70
2019-02-11T05:11:26.846Z,67.70
2019-02-11T05:13:53.594Z,68.00
2019-02-11T05:16:20.262Z,68.00
2019-02-11T05:18:46.895Z,68.10
2019-02-11T05:21:13.540Z,68.20
2019-02-11T05:23:40.207Z,68.80
2019-02-11T05:26:12.714Z,68.10
2019-02-11T05:28:39.375Z,68.10
2019-02-11T05:31:06.006Z,68.10
2019-02-11T05:33:32.657Z,68.60
2019-02-11T05:35:59.675Z,68.70
2019-02-11T05:38:26.366Z,68.00
2019-02-11T05:40:53.046Z,68.20
2019-02-11T05:43:19.698Z,68.20
2019-02-11T05:45:46.438Z,68.10
2019-02-11T05:48:13.233Z,67.70
2019-02-11T05:50:40.727Z,67.90
2019-02-11T05:53:07.387Z,67.60
2019-02-11T05:55:34.392Z,67.70
2019-02-11T05:58:00.993Z,68.10
2019-02-11T06:00:27.669Z,68.00
2019-02-11T06:02:54.322Z,67.80
2019-02-11T06:05:21.001Z,67.80
2019-02-11T06:07:47.646Z,67.60
2019-02-11T06:10:14.329Z,67.50
2019-02-11T06:12:41.022Z,67.30
2019-02-11T06:15:07.657Z,67.40
2019-02-11T06:17:34.652Z,67.30
2019-02-11T06:20:01.295Z,67.20
2019-02-11T06:22:28.038Z,67.10
2019-02-11T06:24:54.989Z,67.40
2019-02-11T06:27:21.630Z,67.40
2019-02-11T06:29:48.452Z,67.40
2019-02-11T06:32:15.053Z,67.30
2019-02-11T06:34:41.736Z,67.40
2019-02-11T06:37:08.386Z,67.20
2019-02-11T06:39:35.077Z,67.40
2019-02-11T06:42:01.757Z,67.20
2019-02-11T06:44:28.404Z,68.10
2019-02-11T06:46:55.046Z,66.90
2019-02-11T06:49:21.709Z,67.00
2019-02-11T06:51:49.400Z,66.80
2019-02-11T06:54:16.229Z,66.80
2019-02-11T06:56:42.889Z,66.50
2019-02-11T06:59:09.569Z,66.40
2019-02-11T07:01:36.246Z,66.50
2019-02-11T07:04:02.925Z,66.70
2019-02-11T07:06:29.597Z,66.50
2019-02-11T07:08:56.283Z,66.20
2019-02-11T07:11:22.953Z,66.30
2019-02-11T07:13:49.641Z,66.60
2019-02-11T07:16:16.285Z,66.80
2019-02-11T07:18:42.945Z,67.30
2019-02-11T07:21:09.581Z,67.00
2019-02-11T07:23:36.623Z,66.90
2019-02-11T07:26:03.293Z,66.90
2019-02-11T07:28:29.946Z,66.80
2019-02-11T07:30:56.645Z,66.90
2019-02-11T07:33:23.295Z,66.90
2019-02-11T07:35:49.922Z,66.60
2019-02-11T07:38:16.570Z,67.40
2019-02-11T07:40:43.194Z,66.40
2019-02-11T07:43:23.230Z,66.40
2019-02-11T07:45:51.679Z,66.00
2019-02-11T07:48:18.332Z,66.20
2019-02-11T07:50:45.292Z,65.90
2019-02-11T07:53:11.928Z,65.80
2019-02-11T07:55:38.582Z,65.80
2019-02-11T07:58:05.220Z,65.90
2019-02-11T08:00:31.861Z,65.90
2019-02-11T08:02:58.565Z,65.70
2019-02-11T08:05:25.226Z,65.60
2019-02-11T08:07:51.868Z,65.80
2019-02-11T08:10:18.530Z,65.60
2019-02-11T08:12:45.189Z,65.50
2019-02-11T08:15:11.876Z,65.40
2019-02-11T08:17:38.719Z,65.40
2019-02-11T08:20:06.949Z,65.40
2019-02-11T08:22:33.620Z,65.60
2019-02-11T08:25:00.273Z,65.60
2019-02-11T08:27:27.015Z,65.70
2019-02-11T08:29:53.610Z,66.00
2019-02-11T08:32:20.251Z,66.30
2019-02-11T08:34:46.924Z,66.30
2019-02-11T08:37:13.558Z,66.30
2019-02-11T08:39:40.246Z,66.00
2019-02-11T08:42:07.140Z,65.90
2019-02-11T08:44:33.785Z,65.70
2019-02-11T08:47:00.450Z,65.60
2019-02-11T08:49:27.082Z,65.60
2019-02-11T08:51:53.959Z,65.70
2019-02-11T08:54:20.622Z,65.60
2019-02-11T08:56:47.258Z,65.80
2019-02-11T08:59:13.927Z,65.60
2019-02-11T09:01:40.565Z,65.60
2019-02-11T09:04:07.265Z,65.60
2019-02-11T09:06:33.914Z,66.00
2019-02-11T09:09:00.895Z,66.20
2019-02-11T09:11:27.553Z,66.20
2019-02-11T09:13:54.194Z,66.20
2019-02-11T09:16:20.865Z,66.40
2019-02-11T09:18:47.498Z,66.40
2019-02-11T09:21:14.140Z,66.60
2019-02-11T09:23:41.072Z,66.50
2019-02-11T09:26:07.993Z,66.50
2019-02-11T09:28:34.658Z,66.40
2019-02-11T09:31:01.317Z,67.30
2019-02-11T09:33:27.958Z,68.80
2019-02-11T09:35:54.654Z,67.30
2019-02-11T09:38:21.346Z,67.10
2019-02-11T09:40:48.002Z,66.60
2019-02-11T09:43:14.654Z,66.70
2019-02-11T09:45:41.311Z,66.60
2019-02-11T09:48:07.961Z,66.50
2019-02-11T09:50:40.945Z,66.50
2019-02-11T09:53:07.727Z,66.50
2019-02-11T09:55:34.859Z,66.50
2019-02-11T09:58:01.503Z,66.40
2019-02-11T10:00:28.263Z,66.30
2019-02-11T10:02:54.906Z,66.50
2019-02-11T10:05:21.583Z,66.40
2019-02-11T10:07:48.233Z,66.30
2019-02-11T10:10:14.884Z,66.10
2019-02-11T10:12:41.542Z,65.80
2019-02-11T10:15:11.251Z,65.30
2019-02-11T10:17:37.917Z,64.80
2019-02-11T10:20:08.046Z,64.90
2019-02-11T10:22:34.690Z,65.00
2019-02-11T10:25:01.351Z,65.20
2019-02-11T10:27:27.993Z,65.40
2019-02-11T10:29:57.519Z,65.20
2019-02-11T10:32:29.886Z,65.30
2019-02-11T10:34:56.539Z,65.40
2019-02-11T10:37:23.190Z,65.60
2019-02-11T10:39:49.829Z,65.60
2019-02-11T10:42:16.500Z,65.60
2019-02-11T10:44:43.133Z,65.70
2019-02-11T10:47:09.766Z,65.80
2019-02-11T10:49:36.425Z,65.80
2019-02-11T10:52:03.049Z,65.80
2019-02-11T10:54:29.725Z,66.70
2019-02-11T10:56:56.390Z,66.30
2019-02-11T10:59:23.028Z,66.40
2019-02-11T11:01:49.711Z,66.50
2019-02-11T11:04:17.899Z,66.40
2019-02-11T11:06:44.602Z,66.80
2019-02-11T11:09:13.066Z,66.80
2019-02-11T11:11:39.743Z,66.90
2019-02-11T11:14:06.747Z,66.80
2019-02-11T11:16:33.390Z,66.80
2019-02-11T11:19:00.054Z,66.90
2019-02-11T11:21:26.696Z,66.90
2019-02-11T11:23:53.333Z,66.90
2019-02-11T11:26:20.006Z,67.20
2019-02-11T11:28:46.684Z,67.50
2019-02-11T11:31:13.369Z,67.50
2019-02-11T11:33:42.062Z,67.80
2019-02-11T11:36:08.698Z,67.50
2019-02-11T11:38:35.481Z,67.50
2019-02-11T11:41:02.119Z,68.10
2019-02-11T11:43:28.802Z,68.70
2019-02-11T11:45:55.438Z,68.20
2019-02-11T11:48:22.533Z,67.80
2019-02-11T11:50:49.886Z,67.70
2019-02-11T11:53:17.773Z,67.60
2019-02-11T11:55:44.464Z,67.60
2019-02-11T11:58:11.416Z,67.50
2019-02-11T12:00:38.184Z,67.50
2019-02-11T12:03:05.825Z,67.40
2019-02-11T12:05:32.866Z,67.40
2019-02-11T12:07:59.517Z,67.20
2019-02-11T12:10:26.258Z,67.20
2019-02-11T12:12:53.094Z,67.30
2019-02-11T12:15:21.838Z,67.10
2019-02-11T12:17:48.717Z,67.10
2019-02-11T12:20:15.483Z,67.10
2019-02-11T12:22:42.357Z,67.10
2019-02-11T12:25:11.053Z,67.10
2019-02-11T12:27:37.708Z,67.10
2019-02-11T12:30:07.926Z,67.00
2019-02-11T12:32:34.587Z,66.80
2019-02-11T12:35:01.280Z,66.90
2019-02-11T12:37:27.923Z,66.80
2019-02-11T12:39:54.729Z,67.00
2019-02-11T12:42:21.325Z,67.10
2019-02-11T12:44:48.107Z,66.60
2019-02-11T12:47:15.332Z,60.10
2019-02-11T12:49:42.211Z,57.40
2019-02-11T12:52:08.846Z,55.50
2019-02-11T12:54:36.193Z,57.40
2019-02-11T12:57:02.948Z,59.00
2019-02-11T12:59:29.584Z,59.30
2019-02-11T13:01:56.253Z,59.40
2019-02-11T13:04:22.979Z,59.40
2019-02-11T13:06:49.776Z,59.50
2019-02-11T13:09:16.452Z,59.60
2019-02-11T13:11:43.173Z,60.00
2019-02-11T13:14:10.019Z,60.30
2019-02-11T13:16:36.659Z,60.60
2019-02-11T13:19:03.354Z,60.80
2019-02-11T13:21:29.978Z,61.10
2019-02-11T13:23:56.777Z,61.20
2019-02-11T13:26:23.409Z,61.40
2019-02-11T13:28:50.082Z,62.20
2019-02-11T13:31:16.758Z,61.50
2019-02-11T13:33:43.441Z,61.80
2019-02-11T13:36:10.085Z,61.70
2019-02-11T13:38:36.767Z,61.80
2019-02-11T13:41:03.425Z,61.90
2019-02-11T13:43:30.108Z,61.90
2019-02-11T13:45:56.823Z,62.00
2019-02-11T13:48:23.606Z,62.10
2019-02-11T13:50:50.267Z,62.10
2019-02-11T13:53:16.959Z,62.10
2019-02-11T13:55:43.625Z,62.90
2019-02-11T13:58:10.317Z,63.60
2019-02-11T14:00:37.375Z,63.90
2019-02-11T14:03:05.632Z,64.00
2019-02-11T14:05:32.792Z,64.50
2019-02-11T14:07:59.861Z,64.60
2019-02-11T14:10:26.517Z,64.50
2019-02-11T14:12:53.399Z,64.60
2019-02-11T14:15:21.374Z,64.60
2019-02-11T14:17:48.584Z,64.60
2019-02-11T14:20:25.931Z,64.70
2019-02-11T14:22:52.578Z,64.60
2019-02-11T14:25:39.354Z,65.20
2019-02-11T14:27:50.400Z,64.70
2019-02-11T14:30:19.828Z,64.60
2019-02-11T14:32:46.491Z,64.60
2019-02-11T14:35:13.732Z,64.60
2019-02-11T14:37:40.356Z,64.40
2019-02-11T14:40:09.019Z,65.00
2019-02-11T14:42:36.331Z,64.10
2019-02-11T14:45:05.983Z,64.00
2019-02-11T14:47:32.613Z,64.00
2019-02-11T14:49:59.262Z,63.80
2019-02-11T14:52:26.137Z,63.80
2019-02-11T14:54:52.761Z,63.70
2019-02-11T14:57:19.442Z,64.50
2019-02-11T14:59:46.083Z,64.30
2019-02-11T15:02:12.892Z,64.50
2019-02-11T15:04:39.566Z,64.60
2019-02-11T15:07:06.202Z,63.30
2019-02-11T15:09:32.866Z,63.20
2019-02-11T15:11:59.507Z,63.30
2019-02-11T15:14:26.141Z,63.60
2019-02-11T15:16:52.786Z,63.60
2019-02-11T15:19:19.423Z,63.70
2019-02-11T15:21:46.102Z,63.60
2019-02-11T15:24:12.742Z,63.50
2019-02-11T15:26:39.410Z,63.50
2019-02-11T15:29:06.054Z,63.50
2019-02-11T15:31:32.698Z,63.40
2019-02-11T15:33:59.377Z,63.30
2019-02-11T15:36:26.028Z,63.30
2019-02-11T15:38:52.686Z,63.30
2019-02-11T15:41:19.335Z,63.30
2019-02-11T15:43:45.972Z,63.10
2019-02-11T15:46:12.634Z,63.10
2019-02-11T15:48:43.164Z,63.00
2019-02-11T15:51:07.714Z,63.00
2019-02-11T15:53:34.354Z,63.10
2019-02-11T15:56:07.726Z,63.20
2019-02-11T15:58:29.569Z,63.00
2019-02-11T16:00:56.522Z,63.00
2019-02-11T16:03:23.162Z,62.90
2019-02-11T16:05:50.087Z,62.90
2019-02-11T16:08:17.333Z,62.80
2019-02-11T16:10:43.998Z,62.90
2019-02-11T16:13:10.671Z,62.70
2019-02-11T16:15:37.318Z,62.80
2019-02-11T16:18:04.397Z,62.70
2019-02-11T16:20:31.078Z,62.70
2019-02-11T16:22:57.727Z,62.70
2019-02-11T16:25:24.377Z,62.50
2019-02-11T16:27:51.010Z,62.70
2019-02-11T16:30:18.451Z,63.30
2019-02-11T16:32:45.123Z,63.70
2019-02-11T16:35:19.694Z,64.20
2019-02-11T16:37:46.378Z,64.70
2019-02-11T16:40:50.511Z,65.70
2019-02-11T16:43:17.097Z,66.50
2019-02-11T16:45:43.618Z,66.00
2019-02-11T16:48:10.328Z,65.80
2019-02-11T16:50:36.753Z,65.80
2019-02-11T16:53:03.287Z,66.20
2019-02-11T16:55:29.573Z,66.00
2019-02-11T16:57:55.997Z,66.00
2019-02-11T17:00:22.413Z,66.30
2019-02-11T17:02:49.032Z,66.20
2019-02-11T17:05:15.420Z,66.20
2019-02-11T17:07:42.439Z,66.40
2019-02-11T17:10:13.032Z,66.50
2019-02-11T17:12:39.348Z,66.40
2019-02-11T17:15:09.807Z,66.50
2019-02-11T17:17:36.159Z,66.50
2019-02-11T17:20:05.357Z,66.50
2019-02-11T17:22:31.941Z,66.30
2019-02-11T17:24:58.345Z,66.40
2019-02-11T17:27:24.886Z,66.30
2019-02-11T17:29:51.177Z,66.30
2019-02-11T17:32:17.480Z,66.20
2019-02-11T17:34:45.777Z,66.20
2019-02-11T17:37:12.414Z,66.30
2019-02-11T17:39:38.693Z,65.90
2019-02-11T17:42:05.013Z,66.40
2019-02-11T17:44:31.301Z,66.40
2019-02-11T17:46:57.606Z,66.10
2019-02-11T17:49:24.035Z,66.20
2019-02-11T17:51:50.364Z,66.00
2019-02-11T17:54:16.798Z,66.40
2019-02-11T17:56:43.330Z,66.50
2019-02-11T17:59:09.962Z,66.60
2019-02-11T18:01:36.380Z,66.90
2019-02-11T18:04:02.669Z,66.80
2019-02-11T18:06:29.099Z,66.80
2019-02-11T18:08:55.396Z,67.50
2019-02-11T18:11:22.467Z,69.30
2019-02-11T18:13:48.733Z,69.30
2019-02-11T18:16:17.164Z,68.70
2019-02-11T18:18:43.596Z,68.40
2019-02-11T18:21:11.375Z,68.90
2019-02-11T18:23:38.322Z,69.00
2019-02-11T18:26:04.743Z,68.90
2019-02-11T18:28:31.126Z,68.90
2019-02-11T18:30:57.571Z,68.70
2019-02-11T18:33:23.853Z,69.50
2019-02-11T18:35:51.445Z,69.30
2019-02-11T18:38:17.850Z,68.90
2019-02-11T18:40:44.580Z,68.80
2019-02-11T18:43:10.893Z,68.70
2019-02-11T18:45:37.184Z,68.70
2019-02-11T18:48:03.579Z,68.70
2019-02-11T18:50:30.000Z,68.80
2019-02-11T18:52:56.601Z,68.90
2019-02-11T18:55:23.138Z,68.80
2019-02-11T18:57:49.635Z,68.60
2019-02-11T19:00:18.534Z,68.80
2019-02-11T19:02:45.271Z,68.50
2019-02-11T19:05:11.715Z,68.30
2019-02-11T19:07:38.138Z,69.00
2019-02-11T19:10:08.050Z,69.20
2019-02-11T19:12:34.523Z,69.00
2019-02-11T19:15:00.914Z,69.30
2019-02-11T19:17:27.530Z,69.70
2019-02-11T19:19:54.170Z,69.80
2019-02-11T19:22:22.310Z,69.80
2019-02-11T19:24:48.976Z,69.60
2019-02-11T19:27:15.794Z,69.90
2019-02-11T19:29:42.406Z,69.70
2019-02-11T19:32:08.721Z,69.70
2019-02-11T19:34:35.157Z,69.60
2019-02-11T19:37:01.499Z,69.60
2019-02-11T19:39:28.226Z,69.40
2019-02-11T19:41:54.489Z,69.40
2019-02-11T19:44:20.924Z,69.30
2019-02-11T19:46:47.217Z,69.30
2019-02-11T19:49:14.030Z,69.30
2019-02-11T19:51:40.452Z,69.10
2019-02-11T19:54:06.850Z,68.90
2019-02-11T19:56:33.172Z,69.20
2019-02-11T19:58:59.469Z,69.10
2019-02-11T20:01:25.890Z,68.80
2019-02-11T20:03:52.294Z,68.90
2019-02-11T20:06:18.582Z,68.70
2019-02-11T20:08:48.312Z,68.60
2019-02-11T20:11:14.930Z,68.60
2019-02-11T20:13:41.221Z,68.60
2019-02-11T20:16:07.519Z,68.40
2019-02-11T20:18:33.941Z,68.50
2019-02-11T20:21:00.200Z,69.20
2019-02-11T20:23:26.514Z,68.20
2019-02-11T20:25:52.822Z,68.20
2019-02-11T20:28:19.925Z,68.30
2019-02-11T20:30:46.469Z,68.30
2019-02-11T20:33:12.754Z,68.20
2019-02-11T20:35:39.171Z,68.20
2019-02-11T20:38:06.260Z,68.20
2019-02-11T20:40:32.706Z,68.20
2019-02-11T20:42:59.126Z,68.20
2019-02-11T20:45:27.142Z,68.10
2019-02-11T20:47:53.433Z,68.20
2019-02-11T20:50:19.860Z,68.10
2019-02-11T20:52:46.266Z,68.50
2019-02-11T20:55:18.497Z,68.70
2019-02-11T20:57:46.541Z,69.00
2019-02-11T21:00:23.868Z,68.80
2019-02-11T21:02:50.167Z,68.60
2019-02-11T21:05:16.556Z,68.30
2019-02-11T21:07:43.082Z,68.30
2019-02-11T21:10:14.664Z,68.60
2019-02-11T21:12:41.077Z,68.40
2019-02-11T21:15:10.077Z,68.40
2019-02-11T21:17:36.413Z,69.10
2019-02-11T21:20:06.136Z,68.30
2019-02-11T21:22:32.648Z,68.40
2019-02-11T21:24:58.962Z,68.40
2019-02-11T21:27:25.261Z,68.30
2019-02-11T21:29:51.666Z,68.60
2019-02-11T21:32:18.301Z,68.20
2019-02-11T21:34:44.628Z,67.70
2019-02-11T21:37:11.126Z,67.50
2019-02-11T21:39:37.412Z,67.40
2019-02-11T21:42:03.805Z,67.30
2019-02-11T21:44:30.634Z,67.20
2019-02-11T21:46:57.135Z,67.30
2019-02-11T21:49:23.686Z,67.40
2019-02-11T21:51:49.981Z,67.30
2019-02-11T21:54:16.606Z,67.10
2019-02-11T21:56:42.921Z,67.20
2019-02-11T21:59:09.317Z,67.20
2019-02-11T22:01:35.642Z,67.20
2019-02-11T22:04:01.944Z,67.20
2019-02-11T22:06:28.244Z,67.20
2019-02-11T22:08:54.857Z,67.10
2019-02-11T22:11:21.262Z,67.10
2019-02-11T22:13:47.689Z,67.00
2019-02-11T22:16:14.221Z,66.80
2019-02-11T22:18:42.620Z,67.20
2019-02-11T22:21:09.054Z,67.10
2019-02-11T22:23:35.465Z,67.10
2019-02-11T22:26:01.913Z,67.00
2019-02-11T22:28:28.530Z,67.00
2019-02-11T22:30:54.813Z,67.20
2019-02-11T22:33:21.238Z,67.20
2019-02-11T22:35:47.642Z,67.10
2019-02-11T22:38:14.078Z,67.10
2019-02-11T22:40:40.477Z,67.20
2019-02-11T22:43:06.791Z,67.00
2019-02-11T22:45:33.101Z,67.00
2019-02-11T22:47:59.390Z,67.10
2019-02-11T22:50:25.813Z,67.00
2019-02-11T22:52:52.318Z,66.90
2019-02-11T22:55:18.613Z,67.00
2019-02-11T22:57:45.161Z,67.00
2019-02-11T23:00:41.708Z,66.90
2019-02-11T23:03:08.126Z,66.90
2019-02-11T23:05:34.791Z,66.90
2019-02-11T23:08:01.191Z,67.10
2019-02-11T23:10:27.491Z,66.60
2019-02-11T23:12:54.000Z,67.00
2019-02-11T23:15:20.336Z,67.00
2019-02-11T23:17:46.757Z,67.00
2019-02-11T23:20:13.073Z,67.10
2019-02-11T23:22:39.492Z,67.10
2019-02-11T23:25:05.782Z,67.10
2019-02-11T23:27:32.311Z,67.10
2019-02-11T23:29:58.602Z,67.20
2019-02-11T23:32:25.259Z,67.20
2019-02-11T23:34:51.621Z,67.50
2019-02-11T23:37:18.126Z,67.40
2019-02-11T23:39:44.450Z,67.60
2019-02-11T23:42:10.851Z,67.60
2019-02-11T23:44:37.253Z,68.70
2019-02-11T23:47:03.661Z,67.70
2019-02-11T23:49:29.965Z,68.00
2019-02-11T23:51:56.415Z,68.10
2019-02-11T23:54:22.673Z,68.10
2019-02-11T23:56:48.973Z,68.00
2019-02-11T23:59:15.480Z,68.00
